sensor_id;sensor_type;location;lat;lon;timestamp;P1;durP1;ratioP1;P2;durP2;ratioP2
10947;SDS011;5526;42.070;24.752;2023-05-10T00:02:17;5.63;;;4.65;;
10947;SDS011;5526;42.070;24.752;2023-05-10T00:04:45;6.72;;;4.80;;
10947;SDS011;5526;42.070;24.752;2023-05-10T00:07:13;5.63;;;4.78;;
10947;SDS011;5526;42.070;24.752;2023-05-10T00:09:42;6.10;;;5.03;;
10947;SDS011;5526;42.070;24.752;2023-05-10T00:12:09;6.30;;;5.20;;
10947;SDS011;5526;42.070;24.752;2023-05-10T00:14:36;7.43;;;5.72;;
10947;SDS011;5526;42.070;24.752;2023-05-10T00:17:03;6.40;;;5.80;;
10947;SDS011;5526;42.070;24.752;2023-05-10T00:19:31;5.88;;;5.35;;
10947;SDS011;5526;42.070;24.752;2023-05-10T00:21:58;6.68;;;5.53;;
10947;SDS011;5526;42.070;24.752;2023-05-10T00:24:26;8.45;;;5.28;;
10947;SDS011;5526;42.070;24.752;2023-05-10T00:26:54;6.80;;;5.15;;
10947;SDS011;5526;42.070;24.752;2023-05-10T00:29:21;6.47;;;4.95;;
10947;SDS011;5526;42.070;24.752;2023-05-10T00:31:48;7.45;;;5.65;;
10947;SDS011;5526;42.070;24.752;2023-05-10T00:34:15;6.03;;;5.53;;
10947;SDS011;5526;42.070;24.752;2023-05-10T00:36:42;6.60;;;6.00;;
10947;SDS011;5526;42.070;24.752;2023-05-10T00:39:09;6.85;;;6.13;;
10947;SDS011;5526;42.070;24.752;2023-05-10T00:41:37;8.35;;;6.43;;
10947;SDS011;5526;42.070;24.752;2023-05-10T00:44:04;6.88;;;6.18;;
10947;SDS011;5526;42.070;24.752;2023-05-10T00:46:32;10.05;;;7.05;;
10947;SDS011;5526;42.070;24.752;2023-05-10T00:48:59;8.18;;;7.10;;
10947;SDS011;5526;42.070;24.752;2023-05-10T00:51:26;9.05;;;7.22;;
10947;SDS011;5526;42.070;24.752;2023-05-10T00:53:53;8.38;;;7.53;;
10947;SDS011;5526;42.070;24.752;2023-05-10T00:56:21;10.18;;;7.38;;
10947;SDS011;5526;42.070;24.752;2023-05-10T00:58:51;8.15;;;7.35;;
10947;SDS011;5526;42.070;24.752;2023-05-10T01:01:18;7.60;;;6.78;;
10947;SDS011;5526;42.070;24.752;2023-05-10T01:03:46;10.25;;;8.00;;
10947;SDS011;5526;42.070;24.752;2023-05-10T01:06:13;9.82;;;7.50;;
10947;SDS011;5526;42.070;24.752;2023-05-10T01:08:40;9.05;;;7.47;;
10947;SDS011;5526;42.070;24.752;2023-05-10T01:11:08;9.10;;;8.15;;
10947;SDS011;5526;42.070;24.752;2023-05-10T01:13:36;9.23;;;8.32;;
10947;SDS011;5526;42.070;24.752;2023-05-10T01:16:06;9.80;;;8.57;;
10947;SDS011;5526;42.070;24.752;2023-05-10T01:18:34;9.15;;;8.20;;
10947;SDS011;5526;42.070;24.752;2023-05-10T01:21:08;11.32;;;8.55;;
10947;SDS011;5526;42.070;24.752;2023-05-10T01:27:03;10.52;;;9.43;;
10947;SDS011;5526;42.070;24.752;2023-05-10T01:32:41;10.25;;;9.25;;
10947;SDS011;5526;42.070;24.752;2023-05-10T01:35:17;13.73;;;9.40;;
10947;SDS011;5526;42.070;24.752;2023-05-10T01:37:50;9.95;;;8.93;;
10947;SDS011;5526;42.070;24.752;2023-05-10T01:40:26;12.93;;;9.15;;
10947;SDS011;5526;42.070;24.752;2023-05-10T01:43:02;12.00;;;9.57;;
10947;SDS011;5526;42.070;24.752;2023-05-10T01:45:37;9.80;;;8.88;;
10947;SDS011;5526;42.070;24.752;2023-05-10T01:48:12;10.60;;;9.32;;
10947;SDS011;5526;42.070;24.752;2023-05-10T01:50:41;11.35;;;10.27;;
10947;SDS011;5526;42.070;24.752;2023-05-10T01:53:11;11.98;;;10.25;;
10947;SDS011;5526;42.070;24.752;2023-05-10T01:55:42;13.13;;;9.90;;
10947;SDS011;5526;42.070;24.752;2023-05-10T01:58:13;10.45;;;9.35;;
10947;SDS011;5526;42.070;24.752;2023-05-10T02:00:44;12.60;;;9.88;;
10947;SDS011;5526;42.070;24.752;2023-05-10T02:03:14;11.43;;;9.85;;
10947;SDS011;5526;42.070;24.752;2023-05-10T02:05:42;10.82;;;9.75;;
10947;SDS011;5526;42.070;24.752;2023-05-10T02:08:12;10.90;;;9.80;;
10947;SDS011;5526;42.070;24.752;2023-05-10T02:10:42;11.02;;;9.77;;
10947;SDS011;5526;42.070;24.752;2023-05-10T02:13:11;12.38;;;9.90;;
10947;SDS011;5526;42.070;24.752;2023-05-10T02:15:40;11.70;;;9.70;;
10947;SDS011;5526;42.070;24.752;2023-05-10T02:18:09;10.63;;;9.52;;
10947;SDS011;5526;42.070;24.752;2023-05-10T02:20:39;11.15;;;9.88;;
10947;SDS011;5526;42.070;24.752;2023-05-10T02:23:07;12.02;;;10.05;;
10947;SDS011;5526;42.070;24.752;2023-05-10T02:25:36;11.88;;;10.00;;
10947;SDS011;5526;42.070;24.752;2023-05-10T02:28:04;12.98;;;10.30;;
10947;SDS011;5526;42.070;24.752;2023-05-10T02:30:33;11.48;;;10.30;;
10947;SDS011;5526;42.070;24.752;2023-05-10T02:33:01;11.23;;;10.15;;
10947;SDS011;5526;42.070;24.752;2023-05-10T02:35:30;12.23;;;11.05;;
10947;SDS011;5526;42.070;24.752;2023-05-10T02:38:01;15.98;;;10.73;;
10947;SDS011;5526;42.070;24.752;2023-05-10T02:40:29;11.77;;;10.55;;
10947;SDS011;5526;42.070;24.752;2023-05-10T02:42:56;12.27;;;10.98;;
10947;SDS011;5526;42.070;24.752;2023-05-10T02:45:28;12.60;;;11.15;;
10947;SDS011;5526;42.070;24.752;2023-05-10T02:47:58;13.43;;;11.68;;
10947;SDS011;5526;42.070;24.752;2023-05-10T02:50:25;12.32;;;11.27;;
10947;SDS011;5526;42.070;24.752;2023-05-10T02:52:56;13.40;;;12.02;;
10947;SDS011;5526;42.070;24.752;2023-05-10T02:55:31;13.02;;;11.73;;
10947;SDS011;5526;42.070;24.752;2023-05-10T02:58:01;13.07;;;11.60;;
10947;SDS011;5526;42.070;24.752;2023-05-10T03:00:29;12.88;;;11.57;;
10947;SDS011;5526;42.070;24.752;2023-05-10T03:02:57;13.38;;;12.07;;
10947;SDS011;5526;42.070;24.752;2023-05-10T03:05:24;14.32;;;12.88;;
10947;SDS011;5526;42.070;24.752;2023-05-10T03:07:52;13.65;;;12.00;;
10947;SDS011;5526;42.070;24.752;2023-05-10T03:10:21;13.20;;;11.90;;
10947;SDS011;5526;42.070;24.752;2023-05-10T03:12:57;13.07;;;11.77;;
10947;SDS011;5526;42.070;24.752;2023-05-10T03:15:37;14.50;;;11.85;;
10947;SDS011;5526;42.070;24.752;2023-05-10T03:18:12;13.85;;;12.57;;
10947;SDS011;5526;42.070;24.752;2023-05-10T03:20:47;14.15;;;12.00;;
10947;SDS011;5526;42.070;24.752;2023-05-10T03:23:19;13.45;;;12.15;;
10947;SDS011;5526;42.070;24.752;2023-05-10T03:25:50;13.32;;;12.10;;
10947;SDS011;5526;42.070;24.752;2023-05-10T03:28:19;14.18;;;11.77;;
10947;SDS011;5526;42.070;24.752;2023-05-10T03:30:47;14.13;;;12.43;;
10947;SDS011;5526;42.070;24.752;2023-05-10T03:33:15;12.98;;;11.52;;
10947;SDS011;5526;42.070;24.752;2023-05-10T03:35:42;13.25;;;11.82;;
10947;SDS011;5526;42.070;24.752;2023-05-10T03:38:11;15.88;;;12.05;;
10947;SDS011;5526;42.070;24.752;2023-05-10T03:40:39;13.68;;;11.73;;
10947;SDS011;5526;42.070;24.752;2023-05-10T03:43:08;13.40;;;11.57;;
10947;SDS011;5526;42.070;24.752;2023-05-10T03:45:35;13.82;;;11.93;;
10947;SDS011;5526;42.070;24.752;2023-05-10T03:48:02;12.75;;;11.55;;
10947;SDS011;5526;42.070;24.752;2023-05-10T03:50:29;16.95;;;11.77;;
10947;SDS011;5526;42.070;24.752;2023-05-10T03:52:56;12.52;;;11.23;;
10947;SDS011;5526;42.070;24.752;2023-05-10T03:55:23;15.93;;;12.30;;
10947;SDS011;5526;42.070;24.752;2023-05-10T03:57:50;13.60;;;12.05;;
10947;SDS011;5526;42.070;24.752;2023-05-10T04:00:20;13.75;;;12.27;;
10947;SDS011;5526;42.070;24.752;2023-05-10T04:02:47;14.85;;;11.73;;
10947;SDS011;5526;42.070;24.752;2023-05-10T04:05:14;13.35;;;12.05;;
10947;SDS011;5526;42.070;24.752;2023-05-10T04:07:42;13.13;;;11.82;;
10947;SDS011;5526;42.070;24.752;2023-05-10T04:10:09;13.30;;;11.90;;
10947;SDS011;5526;42.070;24.752;2023-05-10T04:12:37;12.38;;;11.27;;
10947;SDS011;5526;42.070;24.752;2023-05-10T04:15:05;12.48;;;11.23;;
10947;SDS011;5526;42.070;24.752;2023-05-10T04:17:34;13.98;;;11.13;;
10947;SDS011;5526;42.070;24.752;2023-05-10T04:20:01;13.35;;;11.18;;
10947;SDS011;5526;42.070;24.752;2023-05-10T04:22:28;13.68;;;11.85;;
10947;SDS011;5526;42.070;24.752;2023-05-10T04:24:56;13.52;;;12.23;;
10947;SDS011;5526;42.070;24.752;2023-05-10T04:27:23;13.45;;;12.15;;
10947;SDS011;5526;42.070;24.752;2023-05-10T04:29:50;14.38;;;12.30;;
10947;SDS011;5526;42.070;24.752;2023-05-10T04:32:17;13.40;;;11.65;;
10947;SDS011;5526;42.070;24.752;2023-05-10T04:34:46;12.73;;;11.40;;
10947;SDS011;5526;42.070;24.752;2023-05-10T04:37:14;13.80;;;11.20;;
10947;SDS011;5526;42.070;24.752;2023-05-10T04:39:41;12.45;;;11.10;;
10947;SDS011;5526;42.070;24.752;2023-05-10T04:42:08;13.88;;;11.45;;
10947;SDS011;5526;42.070;24.752;2023-05-10T04:44:35;11.15;;;10.07;;
10947;SDS011;5526;42.070;24.752;2023-05-10T04:47:02;11.38;;;10.23;;
10947;SDS011;5526;42.070;24.752;2023-05-10T04:49:30;11.15;;;9.90;;
10947;SDS011;5526;42.070;24.752;2023-05-10T04:51:58;10.68;;;9.60;;
10947;SDS011;5526;42.070;24.752;2023-05-10T04:54:26;10.27;;;9.27;;
10947;SDS011;5526;42.070;24.752;2023-05-10T04:56:53;11.20;;;9.10;;
10947;SDS011;5526;42.070;24.752;2023-05-10T04:59:20;10.93;;;9.32;;
10947;SDS011;5526;42.070;24.752;2023-05-10T05:01:47;10.95;;;9.45;;
10947;SDS011;5526;42.070;24.752;2023-05-10T05:04:14;13.88;;;10.20;;
10947;SDS011;5526;42.070;24.752;2023-05-10T05:06:41;11.93;;;10.27;;
10947;SDS011;5526;42.070;24.752;2023-05-10T05:09:09;11.10;;;9.00;;
10947;SDS011;5526;42.070;24.752;2023-05-10T05:11:36;10.65;;;9.48;;
10947;SDS011;5526;42.070;24.752;2023-05-10T05:14:04;11.60;;;9.80;;
10947;SDS011;5526;42.070;24.752;2023-05-10T05:16:31;10.35;;;9.05;;
10947;SDS011;5526;42.070;24.752;2023-05-10T05:18:59;9.85;;;9.05;;
10947;SDS011;5526;42.070;24.752;2023-05-10T05:21:26;10.18;;;9.18;;
10947;SDS011;5526;42.070;24.752;2023-05-10T05:23:54;9.55;;;8.55;;
10947;SDS011;5526;42.070;24.752;2023-05-10T05:26:22;9.75;;;8.85;;
10947;SDS011;5526;42.070;24.752;2023-05-10T05:28:49;8.85;;;8.02;;
10947;SDS011;5526;42.070;24.752;2023-05-10T05:31:19;9.35;;;8.20;;
10947;SDS011;5526;42.070;24.752;2023-05-10T05:33:46;9.43;;;8.25;;
10947;SDS011;5526;42.070;24.752;2023-05-10T05:36:13;10.35;;;8.30;;
10947;SDS011;5526;42.070;24.752;2023-05-10T05:38:40;12.65;;;8.90;;
10947;SDS011;5526;42.070;24.752;2023-05-10T05:41:08;11.10;;;8.88;;
10947;SDS011;5526;42.070;24.752;2023-05-10T05:43:37;10.45;;;9.38;;
10947;SDS011;5526;42.070;24.752;2023-05-10T05:46:07;10.00;;;8.90;;
10947;SDS011;5526;42.070;24.752;2023-05-10T05:48:34;10.45;;;9.30;;
10947;SDS011;5526;42.070;24.752;2023-05-10T05:51:01;11.10;;;9.73;;
10947;SDS011;5526;42.070;24.752;2023-05-10T05:53:28;11.18;;;9.98;;
10947;SDS011;5526;42.070;24.752;2023-05-10T05:55:56;10.80;;;9.73;;
10947;SDS011;5526;42.070;24.752;2023-05-10T05:58:23;12.90;;;10.05;;
10947;SDS011;5526;42.070;24.752;2023-05-10T06:00:52;10.40;;;9.38;;
10947;SDS011;5526;42.070;24.752;2023-05-10T06:03:19;10.65;;;8.80;;
10947;SDS011;5526;42.070;24.752;2023-05-10T06:05:46;9.50;;;8.60;;
10947;SDS011;5526;42.070;24.752;2023-05-10T06:08:13;9.98;;;9.00;;
10947;SDS011;5526;42.070;24.752;2023-05-10T06:10:41;9.27;;;8.43;;
10947;SDS011;5526;42.070;24.752;2023-05-10T06:13:08;10.18;;;9.10;;
10947;SDS011;5526;42.070;24.752;2023-05-10T06:15:35;9.30;;;8.40;;
10947;SDS011;5526;42.070;24.752;2023-05-10T06:18:03;9.85;;;7.80;;
10947;SDS011;5526;42.070;24.752;2023-05-10T06:20:31;9.75;;;8.75;;
10947;SDS011;5526;42.070;24.752;2023-05-10T06:22:58;9.10;;;8.20;;
10947;SDS011;5526;42.070;24.752;2023-05-10T06:25:25;7.72;;;7.03;;
10947;SDS011;5526;42.070;24.752;2023-05-10T06:27:52;10.63;;;6.95;;
10947;SDS011;5526;42.070;24.752;2023-05-10T06:30:23;8.43;;;7.63;;
10947;SDS011;5526;42.070;24.752;2023-05-10T06:32:53;10.93;;;7.38;;
10947;SDS011;5526;42.070;24.752;2023-05-10T06:35:22;7.70;;;6.90;;
10947;SDS011;5526;42.070;24.752;2023-05-10T06:37:50;7.88;;;7.18;;
10947;SDS011;5526;42.070;24.752;2023-05-10T06:40:17;8.48;;;7.45;;
10947;SDS011;5526;42.070;24.752;2023-05-10T06:42:44;8.35;;;7.60;;
10947;SDS011;5526;42.070;24.752;2023-05-10T06:45:12;8.23;;;7.30;;
10947;SDS011;5526;42.070;24.752;2023-05-10T06:47:39;8.98;;;8.07;;
10947;SDS011;5526;42.070;24.752;2023-05-10T06:50:07;6.90;;;6.30;;
10947;SDS011;5526;42.070;24.752;2023-05-10T06:52:36;8.07;;;7.28;;
10947;SDS011;5526;42.070;24.752;2023-05-10T06:55:04;8.40;;;7.50;;
10947;SDS011;5526;42.070;24.752;2023-05-10T06:57:32;8.90;;;6.97;;
10947;SDS011;5526;42.070;24.752;2023-05-10T06:59:59;7.95;;;7.15;;
10947;SDS011;5526;42.070;24.752;2023-05-10T07:02:26;8.35;;;7.47;;
10947;SDS011;5526;42.070;24.752;2023-05-10T07:04:53;8.02;;;6.90;;
10947;SDS011;5526;42.070;24.752;2023-05-10T07:07:20;8.80;;;7.30;;
10947;SDS011;5526;42.070;24.752;2023-05-10T07:09:49;7.80;;;7.00;;
10947;SDS011;5526;42.070;24.752;2023-05-10T07:12:16;8.45;;;6.28;;
10947;SDS011;5526;42.070;24.752;2023-05-10T07:14:44;7.88;;;6.50;;
10947;SDS011;5526;42.070;24.752;2023-05-10T07:17:11;7.28;;;6.57;;
10947;SDS011;5526;42.070;24.752;2023-05-10T07:19:38;6.30;;;5.70;;
10947;SDS011;5526;42.070;24.752;2023-05-10T07:22:05;8.90;;;6.40;;
10947;SDS011;5526;42.070;24.752;2023-05-10T07:24:32;6.65;;;6.05;;
10947;SDS011;5526;42.070;24.752;2023-05-10T07:27:01;6.72;;;6.18;;
10947;SDS011;5526;42.070;24.752;2023-05-10T07:29:29;7.80;;;6.50;;
10947;SDS011;5526;42.070;24.752;2023-05-10T07:31:56;7.40;;;6.70;;
10947;SDS011;5526;42.070;24.752;2023-05-10T07:34:23;7.32;;;5.80;;
10947;SDS011;5526;42.070;24.752;2023-05-10T07:36:50;5.78;;;5.28;;
10947;SDS011;5526;42.070;24.752;2023-05-10T07:39:18;6.43;;;5.83;;
10947;SDS011;5526;42.070;24.752;2023-05-10T07:41:45;6.07;;;5.35;;
10947;SDS011;5526;42.070;24.752;2023-05-10T07:44:14;6.05;;;5.45;;
10947;SDS011;5526;42.070;24.752;2023-05-10T07:46:43;5.53;;;5.03;;
10947;SDS011;5526;42.070;24.752;2023-05-10T07:49:10;6.07;;;5.40;;
10947;SDS011;5526;42.070;24.752;2023-05-10T07:51:38;6.55;;;5.95;;
10947;SDS011;5526;42.070;24.752;2023-05-10T07:54:05;7.60;;;5.95;;
10947;SDS011;5526;42.070;24.752;2023-05-10T07:56:32;5.63;;;5.13;;
10947;SDS011;5526;42.070;24.752;2023-05-10T07:59:00;5.88;;;5.25;;
10947;SDS011;5526;42.070;24.752;2023-05-10T08:01:31;6.88;;;4.80;;
10947;SDS011;5526;42.070;24.752;2023-05-10T08:03:59;5.15;;;4.25;;
10947;SDS011;5526;42.070;24.752;2023-05-10T08:06:26;4.97;;;4.43;;
10947;SDS011;5526;42.070;24.752;2023-05-10T08:08:55;5.75;;;4.88;;
10947;SDS011;5526;42.070;24.752;2023-05-10T08:11:22;4.82;;;4.43;;
10947;SDS011;5526;42.070;24.752;2023-05-10T08:13:50;4.80;;;4.40;;
10947;SDS011;5526;42.070;24.752;2023-05-10T08:16:18;5.70;;;4.50;;
10947;SDS011;5526;42.070;24.752;2023-05-10T08:18:46;5.47;;;4.38;;
10947;SDS011;5526;42.070;24.752;2023-05-10T08:21:14;4.45;;;4.07;;
10947;SDS011;5526;42.070;24.752;2023-05-10T08:23:41;5.47;;;4.50;;
10947;SDS011;5526;42.070;24.752;2023-05-10T08:26:09;7.63;;;4.07;;
10947;SDS011;5526;42.070;24.752;2023-05-10T08:28:36;7.32;;;4.47;;
10947;SDS011;5526;42.070;24.752;2023-05-10T08:31:03;4.90;;;4.50;;
10947;SDS011;5526;42.070;24.752;2023-05-10T08:33:31;4.78;;;4.25;;
10947;SDS011;5526;42.070;24.752;2023-05-10T08:35:59;5.30;;;4.18;;
10947;SDS011;5526;42.070;24.752;2023-05-10T08:38:26;5.30;;;4.80;;
10947;SDS011;5526;42.070;24.752;2023-05-10T08:40:54;4.28;;;3.88;;
10947;SDS011;5526;42.070;24.752;2023-05-10T08:43:25;5.18;;;4.70;;
10947;SDS011;5526;42.070;24.752;2023-05-10T08:45:53;5.00;;;4.70;;
10947;SDS011;5526;42.070;24.752;2023-05-10T08:48:22;4.50;;;4.07;;
10947;SDS011;5526;42.070;24.752;2023-05-10T08:50:52;4.95;;;4.43;;
10947;SDS011;5526;42.070;24.752;2023-05-10T08:53:22;5.95;;;4.90;;
10947;SDS011;5526;42.070;24.752;2023-05-10T08:55:52;4.80;;;4.47;;
10947;SDS011;5526;42.070;24.752;2023-05-10T08:58:19;4.88;;;4.35;;
10947;SDS011;5526;42.070;24.752;2023-05-10T09:00:48;5.30;;;4.82;;
10947;SDS011;5526;42.070;24.752;2023-05-10T09:03:16;5.82;;;5.10;;
10947;SDS011;5526;42.070;24.752;2023-05-10T09:05:43;5.65;;;5.07;;
10947;SDS011;5526;42.070;24.752;2023-05-10T09:08:11;5.30;;;4.90;;
10947;SDS011;5526;42.070;24.752;2023-05-10T09:10:40;5.60;;;4.65;;
10947;SDS011;5526;42.070;24.752;2023-05-10T09:13:09;5.93;;;5.07;;
10947;SDS011;5526;42.070;24.752;2023-05-10T09:15:37;5.32;;;4.93;;
10947;SDS011;5526;42.070;24.752;2023-05-10T09:18:04;5.65;;;5.25;;
10947;SDS011;5526;42.070;24.752;2023-05-10T09:20:31;5.63;;;5.13;;
10947;SDS011;5526;42.070;24.752;2023-05-10T09:22:59;5.68;;;5.20;;
10947;SDS011;5526;42.070;24.752;2023-05-10T09:25:26;5.30;;;4.90;;
10947;SDS011;5526;42.070;24.752;2023-05-10T09:27:54;5.47;;;4.97;;
10947;SDS011;5526;42.070;24.752;2023-05-10T09:30:24;5.95;;;5.45;;
10947;SDS011;5526;42.070;24.752;2023-05-10T09:32:53;5.22;;;4.72;;
10947;SDS011;5526;42.070;24.752;2023-05-10T09:35:21;6.32;;;5.03;;
10947;SDS011;5526;42.070;24.752;2023-05-10T09:37:50;6.53;;;5.93;;
10947;SDS011;5526;42.070;24.752;2023-05-10T09:40:19;5.45;;;4.93;;
10947;SDS011;5526;42.070;24.752;2023-05-10T09:42:53;6.00;;;5.60;;
10947;SDS011;5526;42.070;24.752;2023-05-10T09:45:23;5.97;;;5.50;;
10947;SDS011;5526;42.070;24.752;2023-05-10T09:47:51;4.97;;;4.63;;
10947;SDS011;5526;42.070;24.752;2023-05-10T09:50:18;5.10;;;4.70;;
10947;SDS011;5526;42.070;24.752;2023-05-10T09:52:46;5.43;;;4.90;;
10947;SDS011;5526;42.070;24.752;2023-05-10T09:55:18;4.80;;;4.40;;
10947;SDS011;5526;42.070;24.752;2023-05-10T09:57:46;5.50;;;5.00;;
10947;SDS011;5526;42.070;24.752;2023-05-10T10:00:19;5.13;;;4.72;;
10947;SDS011;5526;42.070;24.752;2023-05-10T10:02:47;5.15;;;4.45;;
10947;SDS011;5526;42.070;24.752;2023-05-10T10:05:20;4.90;;;4.50;;
10947;SDS011;5526;42.070;24.752;2023-05-10T10:07:47;5.18;;;4.68;;
10947;SDS011;5526;42.070;24.752;2023-05-10T10:10:15;4.90;;;4.50;;
10947;SDS011;5526;42.070;24.752;2023-05-10T10:12:43;7.07;;;4.82;;
10947;SDS011;5526;42.070;24.752;2023-05-10T10:15:10;5.32;;;4.93;;
10947;SDS011;5526;42.070;24.752;2023-05-10T10:17:40;4.55;;;4.18;;
10947;SDS011;5526;42.070;24.752;2023-05-10T10:20:09;4.07;;;3.75;;
10947;SDS011;5526;42.070;24.752;2023-05-10T10:22:37;4.55;;;4.15;;
10947;SDS011;5526;42.070;24.752;2023-05-10T10:25:04;4.28;;;3.88;;
10947;SDS011;5526;42.070;24.752;2023-05-10T10:27:35;4.75;;;4.40;;
10947;SDS011;5526;42.070;24.752;2023-05-10T10:30:14;5.07;;;4.63;;
10947;SDS011;5526;42.070;24.752;2023-05-10T10:33:09;4.13;;;3.90;;
10947;SDS011;5526;42.070;24.752;2023-05-10T10:35:50;4.30;;;3.90;;
10947;SDS011;5526;42.070;24.752;2023-05-10T10:38:20;4.32;;;4.03;;
10947;SDS011;5526;42.070;24.752;2023-05-10T10:40:47;4.70;;;4.30;;
10947;SDS011;5526;42.070;24.752;2023-05-10T10:43:21;4.40;;;4.10;;
10947;SDS011;5526;42.070;24.752;2023-05-10T10:48:40;4.85;;;4.35;;
10947;SDS011;5526;42.070;24.752;2023-05-10T10:51:08;4.45;;;4.15;;
10947;SDS011;5526;42.070;24.752;2023-05-10T10:53:36;4.97;;;3.80;;
10947;SDS011;5526;42.070;24.752;2023-05-10T10:56:06;4.70;;;4.40;;
10947;SDS011;5526;42.070;24.752;2023-05-10T10:58:35;4.20;;;3.80;;
10947;SDS011;5526;42.070;24.752;2023-05-10T11:01:10;3.47;;;3.28;;
10947;SDS011;5526;42.070;24.752;2023-05-10T11:03:38;4.03;;;3.35;;
10947;SDS011;5526;42.070;24.752;2023-05-10T11:06:07;4.05;;;3.75;;
10947;SDS011;5526;42.070;24.752;2023-05-10T11:08:39;3.75;;;3.45;;
10947;SDS011;5526;42.070;24.752;2023-05-10T11:11:10;5.03;;;3.65;;
10947;SDS011;5526;42.070;24.752;2023-05-10T11:13:41;4.20;;;4.00;;
10947;SDS011;5526;42.070;24.752;2023-05-10T11:16:10;3.88;;;3.58;;
10947;SDS011;5526;42.070;24.752;2023-05-10T11:18:51;4.05;;;3.75;;
10947;SDS011;5526;42.070;24.752;2023-05-10T11:21:21;3.95;;;3.70;;
10947;SDS011;5526;42.070;24.752;2023-05-10T11:23:49;4.07;;;3.63;;
10947;SDS011;5526;42.070;24.752;2023-05-10T11:26:17;4.10;;;3.80;;
10947;SDS011;5526;42.070;24.752;2023-05-10T11:28:48;3.72;;;3.50;;
10947;SDS011;5526;42.070;24.752;2023-05-10T11:31:16;3.90;;;3.58;;
10947;SDS011;5526;42.070;24.752;2023-05-10T11:33:44;3.83;;;3.60;;
10947;SDS011;5526;42.070;24.752;2023-05-10T11:36:12;3.90;;;3.70;;
10947;SDS011;5526;42.070;24.752;2023-05-10T11:38:42;4.60;;;4.20;;
10947;SDS011;5526;42.070;24.752;2023-05-10T11:41:10;4.25;;;3.95;;
10947;SDS011;5526;42.070;24.752;2023-05-10T11:43:38;4.00;;;3.70;;
10947;SDS011;5526;42.070;24.752;2023-05-10T11:46:06;4.47;;;4.15;;
10947;SDS011;5526;42.070;24.752;2023-05-10T11:48:34;4.40;;;4.10;;
10947;SDS011;5526;42.070;24.752;2023-05-10T11:51:01;4.88;;;4.57;;
10947;SDS011;5526;42.070;24.752;2023-05-10T11:53:29;4.63;;;4.32;;
10947;SDS011;5526;42.070;24.752;2023-05-10T11:56:03;5.20;;;4.88;;
10947;SDS011;5526;42.070;24.752;2023-05-10T11:58:31;5.20;;;4.80;;
10947;SDS011;5526;42.070;24.752;2023-05-10T12:00:59;5.10;;;4.70;;
10947;SDS011;5526;42.070;24.752;2023-05-10T12:03:26;5.00;;;4.60;;
10947;SDS011;5526;42.070;24.752;2023-05-10T12:05:54;4.70;;;4.40;;
10947;SDS011;5526;42.070;24.752;2023-05-10T12:08:23;4.47;;;4.15;;
10947;SDS011;5526;42.070;24.752;2023-05-10T12:10:51;4.20;;;3.90;;
10947;SDS011;5526;42.070;24.752;2023-05-10T12:13:20;5.03;;;4.63;;
10947;SDS011;5526;42.070;24.752;2023-05-10T12:15:47;4.90;;;4.60;;
10947;SDS011;5526;42.070;24.752;2023-05-10T12:18:14;4.90;;;4.60;;
10947;SDS011;5526;42.070;24.752;2023-05-10T12:20:49;4.65;;;4.35;;
10947;SDS011;5526;42.070;24.752;2023-05-10T12:23:18;4.97;;;4.57;;
10947;SDS011;5526;42.070;24.752;2023-05-10T12:25:47;4.57;;;4.25;;
10947;SDS011;5526;42.070;24.752;2023-05-10T12:28:14;5.28;;;4.88;;
10947;SDS011;5526;42.070;24.752;2023-05-10T12:30:42;4.95;;;4.60;;
10947;SDS011;5526;42.070;24.752;2023-05-10T12:33:11;6.03;;;5.63;;
10947;SDS011;5526;42.070;24.752;2023-05-10T12:35:43;6.22;;;5.70;;
10947;SDS011;5526;42.070;24.752;2023-05-10T12:38:24;5.60;;;5.10;;
10947;SDS011;5526;42.070;24.752;2023-05-10T12:40:54;6.03;;;5.40;;
10947;SDS011;5526;42.070;24.752;2023-05-10T12:43:22;5.93;;;5.63;;
10947;SDS011;5526;42.070;24.752;2023-05-10T12:45:50;6.55;;;6.05;;
10947;SDS011;5526;42.070;24.752;2023-05-10T12:48:17;6.03;;;5.63;;
10947;SDS011;5526;42.070;24.752;2023-05-10T12:50:44;6.10;;;5.60;;
10947;SDS011;5526;42.070;24.752;2023-05-10T12:53:12;7.57;;;6.22;;
10947;SDS011;5526;42.070;24.752;2023-05-10T12:55:40;6.30;;;5.90;;
10947;SDS011;5526;42.070;24.752;2023-05-10T12:58:07;6.72;;;6.13;;
10947;SDS011;5526;42.070;24.752;2023-05-10T13:00:34;6.68;;;6.15;;
10947;SDS011;5526;42.070;24.752;2023-05-10T13:03:04;6.72;;;6.22;;
10947;SDS011;5526;42.070;24.752;2023-05-10T13:05:31;6.50;;;6.00;;
10947;SDS011;5526;42.070;24.752;2023-05-10T13:07:59;7.18;;;6.57;;
10947;SDS011;5526;42.070;24.752;2023-05-10T13:10:26;6.18;;;5.80;;
10947;SDS011;5526;42.070;24.752;2023-05-10T13:12:53;6.57;;;6.07;;
10947;SDS011;5526;42.070;24.752;2023-05-10T13:15:20;6.80;;;6.15;;
10947;SDS011;5526;42.070;24.752;2023-05-10T13:17:48;6.20;;;5.70;;
10947;SDS011;5526;42.070;24.752;2023-05-10T13:20:17;5.80;;;5.40;;
10947;SDS011;5526;42.070;24.752;2023-05-10T13:22:44;6.03;;;5.63;;
10947;SDS011;5526;42.070;24.752;2023-05-10T13:25:12;6.15;;;5.65;;
10947;SDS011;5526;42.070;24.752;2023-05-10T13:27:39;6.63;;;6.03;;
10947;SDS011;5526;42.070;24.752;2023-05-10T13:30:07;6.05;;;5.63;;
10947;SDS011;5526;42.070;24.752;2023-05-10T13:32:35;6.50;;;5.93;;
10947;SDS011;5526;42.070;24.752;2023-05-10T13:35:02;6.63;;;6.00;;
10947;SDS011;5526;42.070;24.752;2023-05-10T13:37:31;6.28;;;5.78;;
10947;SDS011;5526;42.070;24.752;2023-05-10T13:40:00;5.97;;;5.57;;
10947;SDS011;5526;42.070;24.752;2023-05-10T13:42:29;5.53;;;5.15;;
10947;SDS011;5526;42.070;24.752;2023-05-10T13:44:56;5.60;;;5.20;;
10947;SDS011;5526;42.070;24.752;2023-05-10T13:47:24;5.50;;;5.10;;
10947;SDS011;5526;42.070;24.752;2023-05-10T13:49:51;5.53;;;5.10;;
10947;SDS011;5526;42.070;24.752;2023-05-10T13:52:18;5.60;;;5.20;;
10947;SDS011;5526;42.070;24.752;2023-05-10T13:54:47;6.00;;;5.50;;
10947;SDS011;5526;42.070;24.752;2023-05-10T13:57:14;6.05;;;5.53;;
10947;SDS011;5526;42.070;24.752;2023-05-10T13:59:42;6.07;;;5.57;;
10947;SDS011;5526;42.070;24.752;2023-05-10T14:02:09;5.93;;;5.47;;
10947;SDS011;5526;42.070;24.752;2023-05-10T14:04:38;7.78;;;7.07;;
10947;SDS011;5526;42.070;24.752;2023-05-10T14:07:05;7.68;;;6.95;;
10947;SDS011;5526;42.070;24.752;2023-05-10T14:09:32;7.22;;;6.72;;
10947;SDS011;5526;42.070;24.752;2023-05-10T14:12:00;7.30;;;6.80;;
10947;SDS011;5526;42.070;24.752;2023-05-10T14:14:27;7.30;;;6.72;;
10947;SDS011;5526;42.070;24.752;2023-05-10T14:16:55;6.75;;;6.25;;
10947;SDS011;5526;42.070;24.752;2023-05-10T14:19:22;7.50;;;6.97;;
10947;SDS011;5526;42.070;24.752;2023-05-10T14:21:49;6.70;;;6.30;;
10947;SDS011;5526;42.070;24.752;2023-05-10T14:24:17;5.45;;;5.05;;
10947;SDS011;5526;42.070;24.752;2023-05-10T14:26:44;6.40;;;5.90;;
10947;SDS011;5526;42.070;24.752;2023-05-10T14:29:12;6.15;;;5.70;;
10947;SDS011;5526;42.070;24.752;2023-05-10T14:31:39;6.07;;;5.57;;
10947;SDS011;5526;42.070;24.752;2023-05-10T14:34:07;6.35;;;5.88;;
10947;SDS011;5526;42.070;24.752;2023-05-10T14:36:34;6.68;;;6.07;;
10947;SDS011;5526;42.070;24.752;2023-05-10T14:39:01;5.47;;;5.18;;
10947;SDS011;5526;42.070;24.752;2023-05-10T14:41:29;5.50;;;5.10;;
10947;SDS011;5526;42.070;24.752;2023-05-10T14:43:56;5.55;;;5.15;;
10947;SDS011;5526;42.070;24.752;2023-05-10T14:46:24;5.70;;;5.30;;
10947;SDS011;5526;42.070;24.752;2023-05-10T14:48:51;6.07;;;5.60;;
10947;SDS011;5526;42.070;24.752;2023-05-10T14:51:19;5.20;;;4.82;;
10947;SDS011;5526;42.070;24.752;2023-05-10T14:53:47;5.28;;;4.95;;
10947;SDS011;5526;42.070;24.752;2023-05-10T14:56:14;5.28;;;4.78;;
10947;SDS011;5526;42.070;24.752;2023-05-10T14:58:41;5.05;;;4.65;;